NWS Home NWS Lubbock West Texas Mesonet                      Daily Summary For 11/15/2018

Latest   N   C   S   Daily Sum   3hrΔ   24hrΔ   Soil Data 
Site Map   24hr Precip   72hr Precip   Google Plot

Previous  Date  


Station Time of Last Max Temp Min Temp Max/Min Dew Pt. Max/Min RH 10m Avg Wind 2m Avg Wind Peak Gust @ 33ft (mph) Potential Evapotranspiration
mm/day or in/day
Rain Sum Solar Rad
MJ/m^2
% Clear Day Red Flag
Abernathy 5ENE 03:10 AM 33 30 29 /28 92 / 86 6.6  (W) 2.4 11.8 mph 261° @ 0310 AM 0.5 or 0.02 0.00 0 0 0
Adrian 6WSW 03:10 AM 42 38 26 /25 60 / 52 13.5  (SW) 9.2 19.3 mph 238° @ 0222 AM 1.5 or 0.06 0.00 0 0 0
Aiken 3WSW 03:10 AM 32 28 27 /25 89 / 81 7.5  (W) 2.8 9.9 mph 222° @ 0140 AM 0.5 or 0.02 0.00 0 0 0
Amarillo 15NNW 03:10 AM 34 30 28 /26 90 / 77 6.7  (SW) 3.6 9.9 mph 274° @ 0211 AM 0.5 or 0.02 0.00 0 0 0
Amarillo 7SSE 03:10 AM 33 26 28 /24 93 / 82 8.9  (W) 4 14.2 mph 245° @ 0258 AM 0.5 or 0.02 0.00 0 0 0
Amarillo 9NNE 03:10 AM 35 31 28 /26 85 / 73 4.6  (S) 1.7 10.2 mph 169° @ 1229 AM 0.5 or 0.02 0.00 0 0 0
Amherst 1NE 03:10 AM 35 33 27 /25 74 / 69 9.3  (SW) 5.4 13.2 mph 244° @ 0255 AM 0.8 or 0.03 0.00 0 0 0
Andrews 2E 03:10 AM 38 35 26 /25 67 / 61 6.8  (SW) 2.1 9.1 mph 248° @ 0220 AM 1 or 0.04 0.00 0 0 0
Anton 6SSW 03:10 AM 35 29 29 /27 91 / 78 9.2  (SW) 5 12.4 mph 227° @ 1255 AM 0.5 or 0.02 0.00 0 0 0
Aspermont 3NE 03:10 AM 34 30 28 /26 86 / 77 4.7  (S) 0.8 7.1 mph 195° @ 0150 AM 0.5 or 0.02 0.00 0 0 0
Big Bend NP - Persimmon Gap 03:00 AM 39 35 19 /17 52 / 40 2.4  (S) 1 5.2 mph 206° @ 0222 AM 0.8 or 0.03 0.00 0 0 0
Big Lake 1WNW 03:10 AM 38 34 27 /26 74 / 63 3.6  (S) 0.2 6.1 mph 179° @ 0139 AM 0.8 or 0.03 0.00 0 0 0
Bootleg 11WNW 03:10 AM 34 30 25 /24 78 / 69 12.2  (SW) 7.6 16 mph 231° @ 0227 AM 0.8 or 0.03 0.00 0 0 0
Boys Ranch 1WSW 03:10 AM 28 24 26 /23 98 / 90 1.9  (N) 1.4 8.7 mph 288° @ 0302 AM 0.3 or 0.01 0.00 0 0 0
Brownfield 2S 03:10 AM 37 31 27 /26 84 / 66 3.5  (SW) 2.1 7.9 mph 224° @ 1205 AM 0.5 or 0.02 0.00 0 0 0
Canadian 6E 03:10 AM 32 28 28 /26 94 / 85 4.4  (NW) 0.1 9.9 mph 301° @ 0255 AM 0.5 or 0.02 0.00 0 0 0
Caprock Canyons State Park 03:10 AM 44 38 30 /28 71 / 54 10  (W) 5.7 22.1 mph 245° @ 0305 AM 1.3 or 0.05 0.00 0 0 0
Childress 2NNE 03:10 AM 39 36 29 /28 75 / 64 10.6  (S) 5.8 16.4 mph 209° @ 0115 AM 1 or 0.04 0.00 0 0 0
Clarendon 2WSW 03:10 AM 38 32 28 /26 81 / 67 8.5  (SW) 3.5 12.2 mph 225° @ 0205 AM 0.8 or 0.03 0.00 0 0 0
Claude 12SW 03:10 AM 42 39 27 /26 59 / 54 6.5  (SW) 4 18 mph 234° @ 0306 AM 1 or 0.04 0.00 0 0 0
Clyde 2WNW 03:10 AM 38 36 22 /20 53 / 48 8.9  (S) 5.4 13.7 mph 172° @ 0116 AM 1.3 or 0.05 0.00 0 0 0
Colorado City 5NW 03:09 AM 35 30 29 /27 89 / 75 4.1  (SE) 1.9 5.6 mph 175° @ 1221 AM 0.5 or 0.02 0.00 0 0 0
Coyanosa 2N 03:10 AM 39 32 28 /27 83 / 63 5.4  (S) 2.5 11.9 mph 203° @ 0110 AM 0.8 or 0.03 0.00 0 0 0
Crane 1NNW 03:10 AM 34 31 29 /27 88 / 80 2.2  (E) 0.7 5.4 mph 97° @ 1248 AM 0.5 or 0.02 0.00 0 0 0
Crowell 1E 03:10 AM 35 31 28 /26 85 / 75 5.8  (SW) 3.1 9.2 mph 224° @ 1201 AM 0.5 or 0.02 0.00 0 0 0
Dell City 03:10 AM 33 29 23 /21 76 / 64 5.2  (NE) 3.1 8.3 mph 279° @ 0143 AM 0.8 or 0.03 0.00 0 0 0
Denver City 7WNW 03:10 AM 34 28 24 /22 79 / 63 6.8  (SE) 3.2 10.2 mph 240° @ 1245 AM 0.8 or 0.03 0.00 0 0 0
Dimmitt 2NE 03:10 AM 35 34 28 /27 79 / 74 10.2  (SW) 6.1 14.8 mph 239° @ 0200 AM 0.8 or 0.03 0.00 0 0 0
Dora NM 2SW 03:10 AM 35 31 23 /21 70 / 59 9  (SW) 3.5 11.8 mph 249° @ 0310 AM 1 or 0.04 0.00 0 0 0
Dozier 3W 03:10 AM 36 29 28 /26 92 / 73 2.9  (W) 0.3 5.7 mph 279° @ 1203 AM 0.5 or 0.02 0.00 0 0 0
Earth 9WSW 03:10 AM 38 27 27 /24 87 / 63 10.6  (S) 7.1 20.5 mph 208° @ 0108 AM 0.8 or 0.03 0.00 0 0 0
Endee NM 2SW 03:10 AM 37 32 26 /25 77 / 62 5.3  (S) 3.2 10.2 mph 204° @ 0143 AM 0.8 or 0.03 0.00 0 0 0
Estelline 3SSE 03:10 AM 38 32 29 /26 83 / 65 5.6  (S) 1.6 13 mph 176° @ 1202 AM 0.8 or 0.03 0.00 0 0 0
Floydada 2NNE 03:10 AM 34 30 27 /25 84 / 74 7.4  (SW) 3.7 11 mph 226° @ 0145 AM 0.8 or 0.03 0.00 0 0 0
Fluvanna 3WNW 02:45 AM 36 34 27 /27 74 / 68 6.3  (S) 2.7 7.7 mph 193° @ 0120 AM 0.8 or 0.03 0.00 0 0 0
Fort Chadbourne 03:10 AM 33 29 32 /28 98 / 91 2.9  (N) 0.4 5.3 mph 299° @ 0121 AM 0.5 or 0.02 0.00 0 0 0
Fort Lancaster 03:10 AM 34 28 29 /26 96 / 83 1.5  (N) 0.5 5.3 mph 281° @ 1221 AM 0.5 or 0.02 0.00 0 0 0
Fort Lewis CO 03:10 AM 31 22 18 /16 78 / 58 6.1  (NE) 4.9 8.6 mph 33° @ 1237 AM 0.8 or 0.03 0.00 0 0 0
Fort McKavett 03:10 AM 30 28 26 /25 92 / 86 4.1  (SW) 0.6 6.4 mph 215° @ 0100 AM 0.5 or 0.02 0.00 0 0 0
Friona 2NE 03:10 AM 33 29 28 /26 92 / 81 7.4  (W) 3.4 11.5 mph 244° @ 0145 AM 0.5 or 0.02 0.00 0 0 0
Fritch 1WNW 03:10 AM 37 35 28 /27 73 / 68 10.1  (SW) 7.6 15.2 mph 213° @ 0225 AM 1 or 0.04 0.00 0 0 0
Gail 2ESE 03:10 AM 37 32 27 /25 78 / 67 5.4  (S) 0.9 10.4 mph 237° @ 0305 AM 0.8 or 0.03 0.00 0 0 0
Goodlett 3W 03:10 AM 33 30 26 /26 87 / 77 6.9  (SW) 3 8.8 mph 214° @ 0100 AM 0.5 or 0.02 0.00 0 0 0
Goodnight 03:10 AM 36 32 29 /27 83 / 74 9.6  (SW) 5 13.7 mph 263° @ 0155 AM 0.8 or 0.03 0.00 0 0 0
Graham 5SSW 03:10 AM 41 37 28 /27 69 / 56 9.4  (S) 7 15.7 mph 254° @ 0250 AM 1.3 or 0.05 0.00 0 0 0
Guadalupe Mtns Natl Park 03:10 AM 41 37 21 /19 52 / 42 5.6  (W) 4 11.5 mph 273° @ 1250 AM 1.3 or 0.05 0.00 0 0 0
Guthrie 10WSW 03:10 AM 37 35 27 /26 70 / 66 5.5  (SW) 2.1 10.7 mph 231° @ 0220 AM 0.8 or 0.03 0.00 0 0 0
Hackberry 2 SSE 03:10 AM 39 37 28 /27 69 / 63 10.7  (SW) 6.6 14.8 mph 204° @ 0129 AM 1 or 0.04 0.00 0 0 0
Happy 1E 03:10 AM 34 32 27 /26 82 / 77 11.2  (SW) 8 16.5 mph 257° @ 0207 AM 0.8 or 0.03 0.00 0 0 0
Hart 3N 03:10 AM 29 27 26 /25 92 / 88 8.1  (W) 3.7 10.4 mph 259° @ 0155 AM 0.5 or 0.02 0.00 0 0 0
Haskell 1NW 03:10 AM 35 33 28 /26 81 / 71 6.2  (S) 2.4 9 mph 208° @ 0220 AM 0.8 or 0.03 0.00 0 0 0
Hereford 2NW 03:10 AM 31 30 26 /25 85 / 82 8.2  (SW) 4.9 11 mph 233° @ 0140 AM 0.5 or 0.02 0.00 0 0 0
Hobbs NM 5NW 03:10 AM 35 31 25 /23 73 / 61 6.4  (NW) 2.6 9.8 mph 294° @ 1242 AM 0.8 or 0.03 0.00 0 0 0
Jayton 1SSE 03:10 AM 37 32 27 /26 83 / 66 7.1  (SW) 3.9 10.4 mph 266° @ 0245 AM 0.8 or 0.03 0.00 0 0 0
Junction 1SSW 03:10 AM 29 26 27 /24 95 / 88 2.3  (SW) 0.6 5.3 mph 171° @ 0128 AM 0.3 or 0.01 0.00 0 0 0
Knox City 3NW 03:10 AM 33 31 29 /28 92 / 84 5.1  (SW) 1.2 7 mph 214° @ 0200 AM 0.5 or 0.02 0.00 0 0 0
Lake Alan Henry 1NW 03:10 AM 38 35 28 /28 78 / 65 5.8  (SW) 2 9.2 mph 253° @ 0307 AM 0.8 or 0.03 0.00 0 0 0
Lamesa 2SE 03:10 AM 36 32 27 /25 80 / 70 2.9  (SW) 0.1 5.8 mph 223° @ 1215 AM 0.5 or 0.02 0.00 0 0 0
Lesley 2S 03:10 AM 31 28 28 /26 95 / 85 5.7  (W) 3.8 9.2 mph 280° @ 0233 AM 0.5 or 0.02 0.00 0 0 0
Levelland 4S 03:10 AM 33 27 27 /23 87 / 76 7  (SW) 3 9.4 mph 254° @ 0310 AM 0.5 or 0.02 0.00 0 0 0
Lomax 1SSE 03:10 AM 36 30 28 /27 87 / 73 3.5  (S) 2.2 5.6 mph 149° @ 0147 AM 0.5 or 0.02 0.00 0 0 0
Lubbock 3WNW TTU 03:10 AM 35 30 28 /25 86 / 73 3.8  (SW) 0 6.5 mph 216° @ 0105 AM 0.5 or 0.02 0.00 0 0 0
McCamey 1SSW 03:10 AM 38 34 28 /26 75 / 65 1.7  (S) 1.5 6.4 mph 146° @ 1204 AM 0.5 or 0.02 0.00 0 0 0
McLean 1E 03:10 AM 39 35 28 /27 73 / 65 8.6  (SW) 5.1 17.5 mph 245° @ 0310 AM 1 or 0.04 0.00 0 0 0
Memphis 1NE 03:10 AM 30 28 28 /26 95 / 91 0.9  (NW) 0 4 mph 275° @ 0200 AM 0.3 or 0.01 0.00 0 0 0
Menard 2NW 03:10 AM 29 26 27 /24 95 / 91 1.5  (NW) 0.1 4 mph 261° @ 0234 AM 0.3 or 0.01 0.00 0 0 0
Mertzon 3NNE 03:10 AM 30 28 28 /27 93 / 90 4.1  (SW) 1.5 7 mph 205° @ 1246 AM 0.3 or 0.01 0.00 0 0 0
Morton 1ENE 03:10 AM 36 27 26 /22 81 / 66 5.6  (SW) 2.8 10.1 mph 215° @ 1205 AM 0.8 or 0.03 0.00 0 0 0
Muleshoe 2SSW 03:10 AM 28 24 25 /22 95 / 88 6.3  (SW) 2 10 mph 238° @ 0300 AM 0.5 or 0.02 0.00 0 0 0
New Home 03:10 AM 34 31 29 /27 86 / 79 7.1  (SW) 3 8.9 mph 233° @ 1234 AM 0.5 or 0.02 0.00 0 0 0
Northfield 1S 03:10 AM 36 30 28 /26 88 / 70 6.1  (SW) 2.6 9.7 mph 240° @ 0100 AM 0.8 or 0.03 0.00 0 0 0
O'Donnell 1N 03:10 AM 34 32 27 /26 80 / 75 5  (SW) 1.3 7.1 mph 215° @ 0255 AM 0.5 or 0.02 0.00 0 0 0
Odell 4ENE 03:10 AM 36 32 28 /27 83 / 70 6.8  (S) 2.4 12 mph 193° @ 0306 AM 0.8 or 0.03 0.00 0 0 0
Olton 6S 03:10 AM 30 29 26 /25 88 / 84 10.1  (SW) 4.9 11.7 mph 247° @ 0305 AM 0.5 or 0.02 0.00 0 0 0
Paducah 10SW 03:10 AM 42 37 29 /27 69 / 60 11  (SW) 5.7 16.8 mph 243° @ 0305 AM 1.3 or 0.05 0.00 0 0 0
Palo Duro 4E (JA Ranch) 03:10 AM 40 28 29 /24 87 / 61 3.8  (W) 2.3 7.2 mph 234° @ 1221 AM 0.8 or 0.03 0.00 0 0 0
Palo Duro Canyon SP Floor 03:10 AM 31 28 28 /26 95 / 89 2.3  (W) 0.1 8 mph 326° @ 0230 AM 0.5 or 0.02 0.00 0 0 0
Palo Duro Canyon State Park Rim 03:10 AM 38 33 27 /26 76 / 60 7.5  (SW) 2.9 14.4 mph 267° @ 0212 AM 0.8 or 0.03 0.00 0 0 0
Pampa 2E 03:10 AM 39 34 29 /28 80 / 68 8.5  (SW) 5.4 13.9 mph 229° @ 0235 AM 0.8 or 0.03 0.00 0 0 0
Panhandle 1SSW 03:10 AM 33 31 28 /27 86 / 80 7.9  (SW) 5 13.9 mph 226° @ 0159 AM 0.5 or 0.02 0.00 0 0 0
Plains 3N 03:10 AM 35 28 25 /23 84 / 66 5.2  (SW) 3.2 9.9 mph 281° @ 0135 AM 0.5 or 0.02 0.00 0 0 0
Plainview 1S 03:10 AM 34 31 29 /27 89 / 82 5.2  (SW) 2.5 9.6 mph 235° @ 0225 AM 0.5 or 0.02 0.00 0 0 0
Post 1NE 03:10 AM 42 39 27 /26 60 / 54 8.7  (S) 5.3 15.6 mph 243° @ 0250 AM 1.3 or 0.05 0.00 0 0 0
Ralls 1SE 03:10 AM 34 31 26 /24 79 / 73 6.7  (SW) 2.8 11.1 mph 236° @ 0150 AM 0.8 or 0.03 0.00 0 0 0
Reese Center 03:10 AM 32 30 26 /25 85 / 79 9.2  (SW) 4.8 11.3 mph 229° @ 1220 AM 0.5 or 0.02 0.00 0 0 0
Roaring Springs 3N 03:10 AM 39 36 30 /29 78 / 69 9.5  (SW) 6.3 13.8 mph 258° @ 0235 AM 1 or 0.04 0.00 0 0 0
Romero 11 SSW 03:10 AM 35 29 27 /25 85 / 74 5.6  (SW) 2.5 9.4 mph 241° @ 1232 AM 0.5 or 0.02 0.00 0 0 0
Rotan 5W 03:10 AM 39 37 29 /28 71 / 65 10.4  (SW) 6.4 15.1 mph 227° @ 0225 AM 1 or 0.04 0.00 0 0 0
San Angelo 7NW 03:10 AM 30 28 26 /24 86 / 84 4.4  (NW) 2.5 6 mph 329° @ 0155 AM 0.5 or 0.02 0.00 0 0 0
Seagraves 1SW 03:10 AM 32 27 26 /23 86 / 76 2.7  (N) 0 5.5 mph 301° @ 0305 AM 0.5 or 0.02 0.00 0 0 0
Seminole 2NNE 03:10 AM 38 31 27 /25 77 / 61 4.9  (S) 2.3 9.1 mph 256° @ 0150 AM 0.8 or 0.03 0.00 0 0 0
Seymour 3NW 03:10 AM 34 33 28 /27 83 / 74 4  (S) 2.3 6.9 mph 225° @ 0240 AM 0.5 or 0.02 0.00 0 0 0
Sierra Blanca 1SSE 03:10 AM 42 38 17 /15 42 / 34 1.9  (N) 1.9 5 mph 7° @ 1201 AM 0.8 or 0.03 0.00 0 0 0
Silverton 7ESE 03:10 AM 34 31 28 /27 87 / 81 9.2  (SW) 4.6 13.9 mph 243° @ 0300 AM 0.5 or 0.02 0.00 0 0 0
Slaton 2NE 03:10 AM 37 33 28 /27 80 / 72 9.9  (SW) 6.2 13.7 mph 235° @ 0305 AM 0.8 or 0.03 0.00 0 0 0
Snyder 3E 03:10 AM 36 33 29 /28 84 / 73 6.2  (S) 1.6 9.4 mph 207° @ 0110 AM 0.8 or 0.03 0.00 0 0 0
Snyder 3SSW 03:10 AM 38 33 28 /27 81 / 67 7.6  (S) 3.5 10.9 mph 214° @ 0102 AM 0.8 or 0.03 0.00 0 0 0
Spur 1W 03:10 AM 34 30 28 /27 88 / 77 3.8  (NW) 0 7.1 mph 286° @ 0210 AM 0.5 or 0.02 0.00 0 0 0
St. Lawrence 5SW 03:10 AM 39 36 27 /26 69 / 61 6.6  (S) 2.9 11.5 mph 201° @ 0220 AM 1 or 0.04 0.00 0 0 0
Stamford 5ESE 03:10 AM 35 32 30 /28 89 / 79 6  (S) 1.7 8.3 mph 205° @ 0202 AM 0.5 or 0.02 0.00 0 0 0
Sterling City 4WSW 03:10 AM 29 26 27 /25 98 / 90 1.1  (N) 0 3.9 mph 330° @ 1236 AM 0.3 or 0.01 0.00 0 0 0
Stinnett 1NNW 03:10 AM 36 34 28 /27 77 / 72 14.9  (SW) 9.1 20.5 mph 257° @ 0307 AM 1 or 0.04 0.00 0 0 0
Sundown 8WSW 03:10 AM 32 28 25 /23 80 / 73 8.6  (SW) 1.3 12.3 mph 266° @ 0210 AM 0.8 or 0.03 0.00 0 0 0
Sweetwater 11SW 03:10 AM 38 35 27 /26 71 / 63 5.5  (SE) 2.8 7.6 mph 170° @ 0300 AM 0.8 or 0.03 0.00 0 0 0
Tahoka 3NNE 03:10 AM 34 32 27 /25 77 / 73 7.7  (SW) 3.1 9.9 mph 226° @ 0208 AM 0.8 or 0.03 0.00 0 0 0
Tarzan 2WNW 03:10 AM 36 32 28 /28 83 / 72 5.2  (S) 1.3 8.5 mph 250° @ 0246 AM 0.5 or 0.02 0.00 0 0 0
Tatum NM 2SW 03:10 AM 30 26 24 /21 84 / 76 8.3  (W) 3.3 11.1 mph 282° @ 1240 AM 0.5 or 0.02 0.00 0 0 0
Throckmorton 1SW 03:10 AM 37 34 29 /23 76 / 59 3.7  (SW) 1 9.1 mph 235° @ 0308 AM 0.8 or 0.03 0.00 0 0 0
Tulia 2ENE 03:10 AM 37 34 28 /27 77 / 70 12.6  (SW) 8.3 21.3 mph 242° @ 0255 AM 1 or 0.04 0.00 0 0 0
Turkey 2WSW 03:10 AM 38 34 30 /30 85 / 72 12  (SW) 7.7 15.6 mph 222° @ 0310 AM 0.8 or 0.03 0.00 0 0 0
Umbarger 3NNE 03:10 AM 33 31 28 /27 87 / 81 10.6  (SW) 8.1 16.2 mph 238° @ 0222 AM 0.5 or 0.02 0.00 0 0 0
Van Horn 3ENE 03:10 AM 38 34 21 /19 54 / 47 8.7  (SW) 5.2 12.9 mph 207° @ 0237 AM 1.3 or 0.05 0.00 0 0 0
Vigo Park 03:10 AM 32 29 28 /26 89 / 83 9.2  (SW) 4.5 12.6 mph 240° @ 0303 AM 0.5 or 0.02 0.00 0 0 0
Wall 2E 03:10 AM 33 30 29 /28 90 / 84 6.2  (SW) 1.6 9.4 mph 257° @ 0131 AM 0.5 or 0.02 0.00 0 0 0
Weinert 2NNE 03:10 AM 38 34 28 /26 78 / 63 6.1  (S) 2.9 9.8 mph 202° @ 0124 AM 0.8 or 0.03 0.00 0 0 0
Welch 03:10 AM 34 28 27 /24 88 / 73 2.6  (SW) 0.2 4.8 mph 251° @ 0257 AM 0.5 or 0.02 0.00 0 0 0
White River Lake 6NW 03:10 AM 42 39 26 /24 59 / 50 7  (SW) 4.1 11.5 mph 230° @ 0110 AM 1.3 or 0.05 0.00 0 0 0
Wolfforth 6SSW 03:10 AM 35 31 28 /26 82 / 76 7.1  (SW) 3.1 9.2 mph 224° @ 1210 AM 0.8 or 0.03 0.00 0 0 0

WestTexas Mesonet Home    Site Map/Menu  National Weather Service Lubbock   Soil Data   Latest Observation Page   Previous  Date